sensor_id;sensor_type;location;lat;lon;timestamp;temperature;humidity
19389;DHT22;9830;41.876;23.474;2023-12-20T00:00:26;-3.40;99.90
19389;DHT22;9830;41.876;23.474;2023-12-20T00:02:51;-3.40;99.90
19389;DHT22;9830;41.876;23.474;2023-12-20T00:05:17;-3.50;99.90
19389;DHT22;9830;41.876;23.474;2023-12-20T00:07:43;-3.50;99.90
19389;DHT22;9830;41.876;23.474;2023-12-20T00:10:09;-3.50;99.90
19389;DHT22;9830;41.876;23.474;2023-12-20T00:12:34;-3.60;99.90
19389;DHT22;9830;41.876;23.474;2023-12-20T00:15:00;-3.60;99.90
19389;DHT22;9830;41.876;23.474;2023-12-20T00:17:26;-3.60;99.90
19389;DHT22;9830;41.876;23.474;2023-12-20T00:19:51;-3.70;99.90
19389;DHT22;9830;41.876;23.474;2023-12-20T00:22:17;-3.70;99.90
19389;DHT22;9830;41.876;23.474;2023-12-20T00:24:43;-3.70;99.90
19389;DHT22;9830;41.876;23.474;2023-12-20T00:27:08;-3.70;99.90
19389;DHT22;9830;41.876;23.474;2023-12-20T00:29:34;-3.70;99.90
19389;DHT22;9830;41.876;23.474;2023-12-20T00:31:59;-3.60;99.90
19389;DHT22;9830;41.876;23.474;2023-12-20T00:34:25;-3.70;99.90
19389;DHT22;9830;41.876;23.474;2023-12-20T00:36:51;-3.60;99.90
19389;DHT22;9830;41.876;23.474;2023-12-20T00:39:16;-3.60;99.90
19389;DHT22;9830;41.876;23.474;2023-12-20T00:41:42;-3.60;99.90
19389;DHT22;9830;41.876;23.474;2023-12-20T00:44:08;-3.60;99.90
19389;DHT22;9830;41.876;23.474;2023-12-20T00:46:34;-3.60;99.90
19389;DHT22;9830;41.876;23.474;2023-12-20T00:48:59;-3.60;99.90
19389;DHT22;9830;41.876;23.474;2023-12-20T00:51:25;-3.60;99.90
19389;DHT22;9830;41.876;23.474;2023-12-20T00:53:51;-3.60;99.90
19389;DHT22;9830;41.876;23.474;2023-12-20T00:56:20;-3.50;99.90
19389;DHT22;9830;41.876;23.474;2023-12-20T00:58:46;-3.50;99.90
19389;DHT22;9830;41.876;23.474;2023-12-20T01:01:11;-3.60;99.90
19389;DHT22;9830;41.876;23.474;2023-12-20T01:03:38;-3.60;99.90
19389;DHT22;9830;41.876;23.474;2023-12-20T01:06:04;-3.70;99.90
19389;DHT22;9830;41.876;23.474;2023-12-20T01:08:30;-3.70;99.90
19389;DHT22;9830;41.876;23.474;2023-12-20T01:10:56;-3.70;99.90
19389;DHT22;9830;41.876;23.474;2023-12-20T01:13:22;-3.60;99.90
19389;DHT22;9830;41.876;23.474;2023-12-20T01:15:47;-3.60;99.90
19389;DHT22;9830;41.876;23.474;2023-12-20T01:18:14;-3.60;99.90
19389;DHT22;9830;41.876;23.474;2023-12-20T01:20:40;-3.50;99.90
19389;DHT22;9830;41.876;23.474;2023-12-20T01:23:05;-3.60;99.90
19389;DHT22;9830;41.876;23.474;2023-12-20T01:25:31;-3.50;99.90
19389;DHT22;9830;41.876;23.474;2023-12-20T01:27:57;-3.60;99.90
19389;DHT22;9830;41.876;23.474;2023-12-20T01:30:22;-3.60;99.90
19389;DHT22;9830;41.876;23.474;2023-12-20T01:32:48;-3.60;99.90
19389;DHT22;9830;41.876;23.474;2023-12-20T01:35:14;-3.60;99.90
19389;DHT22;9830;41.876;23.474;2023-12-20T01:37:40;-3.70;99.90
19389;DHT22;9830;41.876;23.474;2023-12-20T01:40:06;-3.60;99.90
19389;DHT22;9830;41.876;23.474;2023-12-20T01:42:31;-3.70;99.90
19389;DHT22;9830;41.876;23.474;2023-12-20T01:44:57;-3.70;99.90
19389;DHT22;9830;41.876;23.474;2023-12-20T01:47:23;-3.70;99.90
19389;DHT22;9830;41.876;23.474;2023-12-20T01:49:49;-3.70;99.90
19389;DHT22;9830;41.876;23.474;2023-12-20T01:52:15;-3.70;99.90
19389;DHT22;9830;41.876;23.474;2023-12-20T01:54:42;-3.70;99.90
19389;DHT22;9830;41.876;23.474;2023-12-20T01:57:08;-3.70;99.90
19389;DHT22;9830;41.876;23.474;2023-12-20T01:59:34;-3.60;99.90
19389;DHT22;9830;41.876;23.474;2023-12-20T02:02:00;-3.60;99.90
19389;DHT22;9830;41.876;23.474;2023-12-20T02:04:27;-3.70;99.90
19389;DHT22;9830;41.876;23.474;2023-12-20T02:06:53;-3.60;99.90
19389;DHT22;9830;41.876;23.474;2023-12-20T02:09:20;-3.70;99.90
19389;DHT22;9830;41.876;23.474;2023-12-20T02:11:46;-3.70;99.90
19389;DHT22;9830;41.876;23.474;2023-12-20T02:14:12;-3.60;99.90
19389;DHT22;9830;41.876;23.474;2023-12-20T02:16:38;-3.70;99.90
19389;DHT22;9830;41.876;23.474;2023-12-20T02:19:07;-3.70;99.90
19389;DHT22;9830;41.876;23.474;2023-12-20T02:21:35;-3.80;99.90
19389;DHT22;9830;41.876;23.474;2023-12-20T02:24:01;-3.90;99.90
19389;DHT22;9830;41.876;23.474;2023-12-20T02:26:27;-3.90;99.90
19389;DHT22;9830;41.876;23.474;2023-12-20T02:28:52;-4.00;99.90
19389;DHT22;9830;41.876;23.474;2023-12-20T02:31:21;-4.00;99.90
19389;DHT22;9830;41.876;23.474;2023-12-20T02:33:47;-4.00;99.90
19389;DHT22;9830;41.876;23.474;2023-12-20T02:36:13;-4.10;99.90
19389;DHT22;9830;41.876;23.474;2023-12-20T02:38:39;-4.00;99.90
19389;DHT22;9830;41.876;23.474;2023-12-20T02:41:04;-4.10;99.90
19389;DHT22;9830;41.876;23.474;2023-12-20T02:43:30;-4.10;99.90
19389;DHT22;9830;41.876;23.474;2023-12-20T02:45:55;-4.10;99.90
19389;DHT22;9830;41.876;23.474;2023-12-20T02:48:22;-4.10;99.90
19389;DHT22;9830;41.876;23.474;2023-12-20T02:50:48;-4.10;99.90
19389;DHT22;9830;41.876;23.474;2023-12-20T02:53:14;-4.10;99.90
19389;DHT22;9830;41.876;23.474;2023-12-20T02:55:40;-4.10;99.90
19389;DHT22;9830;41.876;23.474;2023-12-20T02:58:06;-4.10;99.90
19389;DHT22;9830;41.876;23.474;2023-12-20T03:00:31;-4.10;99.90
19389;DHT22;9830;41.876;23.474;2023-12-20T03:02:57;-4.20;99.90
19389;DHT22;9830;41.876;23.474;2023-12-20T03:05:25;-4.20;99.90
19389;DHT22;9830;41.876;23.474;2023-12-20T03:07:50;-4.20;99.90
19389;DHT22;9830;41.876;23.474;2023-12-20T03:10:18;-4.20;99.90
19389;DHT22;9830;41.876;23.474;2023-12-20T03:12:44;-4.10;99.90
19389;DHT22;9830;41.876;23.474;2023-12-20T03:15:10;-4.20;99.90
19389;DHT22;9830;41.876;23.474;2023-12-20T03:17:36;-4.10;99.90
19389;DHT22;9830;41.876;23.474;2023-12-20T03:20:02;-4.20;99.90
19389;DHT22;9830;41.876;23.474;2023-12-20T03:22:27;-4.10;99.90
19389;DHT22;9830;41.876;23.474;2023-12-20T03:24:53;-4.10;99.90
19389;DHT22;9830;41.876;23.474;2023-12-20T03:27:19;-4.10;99.90
19389;DHT22;9830;41.876;23.474;2023-12-20T03:29:44;-4.00;99.90
19389;DHT22;9830;41.876;23.474;2023-12-20T03:32:10;-4.00;99.90
19389;DHT22;9830;41.876;23.474;2023-12-20T03:34:36;-4.00;99.90
19389;DHT22;9830;41.876;23.474;2023-12-20T03:37:01;-4.20;99.90
19389;DHT22;9830;41.876;23.474;2023-12-20T03:39:27;-4.20;99.90
19389;DHT22;9830;41.876;23.474;2023-12-20T03:41:53;-4.20;99.90
19389;DHT22;9830;41.876;23.474;2023-12-20T03:44:18;-4.20;99.90
19389;DHT22;9830;41.876;23.474;2023-12-20T03:46:44;-4.20;99.90
19389;DHT22;9830;41.876;23.474;2023-12-20T03:49:11;-4.20;99.90
19389;DHT22;9830;41.876;23.474;2023-12-20T03:51:36;-4.20;99.90
19389;DHT22;9830;41.876;23.474;2023-12-20T03:54:02;-4.20;99.90
19389;DHT22;9830;41.876;23.474;2023-12-20T03:56:28;-4.20;99.90
19389;DHT22;9830;41.876;23.474;2023-12-20T03:58:54;-4.10;99.90
19389;DHT22;9830;41.876;23.474;2023-12-20T04:01:19;-4.10;99.90
19389;DHT22;9830;41.876;23.474;2023-12-20T04:03:45;-4.20;99.90
19389;DHT22;9830;41.876;23.474;2023-12-20T04:06:17;-4.20;99.90
19389;DHT22;9830;41.876;23.474;2023-12-20T04:08:42;-4.20;99.90
19389;DHT22;9830;41.876;23.474;2023-12-20T04:11:08;-4.10;99.90
19389;DHT22;9830;41.876;23.474;2023-12-20T04:13:34;-4.20;99.90
19389;DHT22;9830;41.876;23.474;2023-12-20T04:15:59;-4.20;99.90
19389;DHT22;9830;41.876;23.474;2023-12-20T04:18:25;-4.20;99.90
19389;DHT22;9830;41.876;23.474;2023-12-20T04:20:50;-4.10;99.90
19389;DHT22;9830;41.876;23.474;2023-12-20T04:23:17;-4.20;99.90
19389;DHT22;9830;41.876;23.474;2023-12-20T04:25:42;-4.20;99.90
19389;DHT22;9830;41.876;23.474;2023-12-20T04:28:08;-4.20;99.90
19389;DHT22;9830;41.876;23.474;2023-12-20T04:30:34;-4.30;99.90
19389;DHT22;9830;41.876;23.474;2023-12-20T04:33:00;-4.30;99.90
19389;DHT22;9830;41.876;23.474;2023-12-20T04:35:26;-4.30;99.90
19389;DHT22;9830;41.876;23.474;2023-12-20T04:37:51;-4.30;99.90
19389;DHT22;9830;41.876;23.474;2023-12-20T04:40:17;-4.30;99.90
19389;DHT22;9830;41.876;23.474;2023-12-20T04:42:43;-4.30;99.90
19389;DHT22;9830;41.876;23.474;2023-12-20T04:45:08;-4.30;99.90
19389;DHT22;9830;41.876;23.474;2023-12-20T04:47:34;-4.20;99.90
19389;DHT22;9830;41.876;23.474;2023-12-20T04:50:00;-4.10;99.90
19389;DHT22;9830;41.876;23.474;2023-12-20T04:52:26;-4.20;99.90
19389;DHT22;9830;41.876;23.474;2023-12-20T04:54:51;-4.20;99.90
19389;DHT22;9830;41.876;23.474;2023-12-20T04:57:17;-4.20;99.90
19389;DHT22;9830;41.876;23.474;2023-12-20T04:59:43;-4.20;99.90
19389;DHT22;9830;41.876;23.474;2023-12-20T05:02:08;-4.20;99.90
19389;DHT22;9830;41.876;23.474;2023-12-20T05:04:34;-4.20;99.90
19389;DHT22;9830;41.876;23.474;2023-12-20T05:07:00;-4.30;99.90
19389;DHT22;9830;41.876;23.474;2023-12-20T05:09:26;-4.20;99.90
19389;DHT22;9830;41.876;23.474;2023-12-20T05:11:51;-4.20;99.90
19389;DHT22;9830;41.876;23.474;2023-12-20T05:14:17;-4.20;99.90
19389;DHT22;9830;41.876;23.474;2023-12-20T05:16:43;-4.20;99.90
19389;DHT22;9830;41.876;23.474;2023-12-20T05:19:08;-4.20;99.90
19389;DHT22;9830;41.876;23.474;2023-12-20T05:21:34;-4.20;99.90
19389;DHT22;9830;41.876;23.474;2023-12-20T05:24:01;-4.20;99.90
19389;DHT22;9830;41.876;23.474;2023-12-20T05:26:26;-4.20;99.90
19389;DHT22;9830;41.876;23.474;2023-12-20T05:28:52;-4.10;99.90
19389;DHT22;9830;41.876;23.474;2023-12-20T05:31:18;-4.20;99.90
19389;DHT22;9830;41.876;23.474;2023-12-20T05:33:43;-4.30;99.90
19389;DHT22;9830;41.876;23.474;2023-12-20T05:36:09;-4.20;99.90
19389;DHT22;9830;41.876;23.474;2023-12-20T05:38:37;-4.20;99.90
19389;DHT22;9830;41.876;23.474;2023-12-20T05:41:02;-4.30;99.90
19389;DHT22;9830;41.876;23.474;2023-12-20T05:43:29;-4.30;99.90
19389;DHT22;9830;41.876;23.474;2023-12-20T05:45:54;-4.30;99.90
19389;DHT22;9830;41.876;23.474;2023-12-20T05:48:20;-4.30;99.90
19389;DHT22;9830;41.876;23.474;2023-12-20T05:50:46;-4.40;99.90
19389;DHT22;9830;41.876;23.474;2023-12-20T05:53:11;-4.30;99.90
19389;DHT22;9830;41.876;23.474;2023-12-20T05:55:37;-4.40;99.90
19389;DHT22;9830;41.876;23.474;2023-12-20T05:58:03;-4.40;99.90
19389;DHT22;9830;41.876;23.474;2023-12-20T06:00:28;-4.40;99.90
19389;DHT22;9830;41.876;23.474;2023-12-20T06:02:54;-4.40;99.90
19389;DHT22;9830;41.876;23.474;2023-12-20T06:05:20;-4.50;99.90
19389;DHT22;9830;41.876;23.474;2023-12-20T06:07:45;-4.40;99.90
19389;DHT22;9830;41.876;23.474;2023-12-20T06:10:13;-4.50;99.90
19389;DHT22;9830;41.876;23.474;2023-12-20T06:12:39;-4.50;99.90
19389;DHT22;9830;41.876;23.474;2023-12-20T06:15:05;-4.40;99.90
19389;DHT22;9830;41.876;23.474;2023-12-20T06:17:31;-4.40;99.90
19389;DHT22;9830;41.876;23.474;2023-12-20T06:19:57;-4.30;99.90
19389;DHT22;9830;41.876;23.474;2023-12-20T06:22:23;-4.20;99.90
19389;DHT22;9830;41.876;23.474;2023-12-20T06:24:48;-4.20;99.90
19389;DHT22;9830;41.876;23.474;2023-12-20T06:27:14;-4.20;99.90
19389;DHT22;9830;41.876;23.474;2023-12-20T06:29:40;-4.20;99.90
19389;DHT22;9830;41.876;23.474;2023-12-20T06:32:06;-4.20;99.90
19389;DHT22;9830;41.876;23.474;2023-12-20T06:34:32;-4.10;99.90
19389;DHT22;9830;41.876;23.474;2023-12-20T06:36:57;-4.00;99.90
19389;DHT22;9830;41.876;23.474;2023-12-20T06:39:23;-3.80;99.90
19389;DHT22;9830;41.876;23.474;2023-12-20T06:41:49;-3.80;99.90
19389;DHT22;9830;41.876;23.474;2023-12-20T06:44:14;-3.70;99.90
19389;DHT22;9830;41.876;23.474;2023-12-20T06:46:40;-3.60;99.90
19389;DHT22;9830;41.876;23.474;2023-12-20T06:49:06;-3.40;99.90
19389;DHT22;9830;41.876;23.474;2023-12-20T06:51:31;-3.20;99.90
19389;DHT22;9830;41.876;23.474;2023-12-20T06:53:57;-3.20;99.90
19389;DHT22;9830;41.876;23.474;2023-12-20T06:56:23;-3.10;99.90
19389;DHT22;9830;41.876;23.474;2023-12-20T06:58:49;-2.90;99.90
19389;DHT22;9830;41.876;23.474;2023-12-20T07:01:15;-2.90;99.90
19389;DHT22;9830;41.876;23.474;2023-12-20T07:03:41;-2.90;99.90
19389;DHT22;9830;41.876;23.474;2023-12-20T07:06:07;-2.70;99.90
19389;DHT22;9830;41.876;23.474;2023-12-20T07:08:33;-2.70;99.90
19389;DHT22;9830;41.876;23.474;2023-12-20T07:10:58;-2.80;99.90
19389;DHT22;9830;41.876;23.474;2023-12-20T07:13:24;-2.90;99.90
19389;DHT22;9830;41.876;23.474;2023-12-20T07:15:50;-2.70;99.90
19389;DHT22;9830;41.876;23.474;2023-12-20T07:18:16;-2.70;99.90
19389;DHT22;9830;41.876;23.474;2023-12-20T07:20:42;-2.80;99.90
19389;DHT22;9830;41.876;23.474;2023-12-20T07:23:08;-2.90;99.90
19389;DHT22;9830;41.876;23.474;2023-12-20T07:25:34;-2.90;99.90
19389;DHT22;9830;41.876;23.474;2023-12-20T07:27:59;-2.80;99.90
19389;DHT22;9830;41.876;23.474;2023-12-20T07:30:25;-2.70;99.90
19389;DHT22;9830;41.876;23.474;2023-12-20T07:32:51;-2.50;99.90
19389;DHT22;9830;41.876;23.474;2023-12-20T07:35:18;-2.00;99.90
19389;DHT22;9830;41.876;23.474;2023-12-20T07:37:43;-1.80;99.90
19389;DHT22;9830;41.876;23.474;2023-12-20T07:40:10;-1.70;99.90
19389;DHT22;9830;41.876;23.474;2023-12-20T07:42:36;-2.00;99.90
19389;DHT22;9830;41.876;23.474;2023-12-20T07:45:02;-1.60;99.90
19389;DHT22;9830;41.876;23.474;2023-12-20T07:47:27;-1.30;99.90
19389;DHT22;9830;41.876;23.474;2023-12-20T07:49:53;-0.40;99.90
19389;DHT22;9830;41.876;23.474;2023-12-20T07:52:19;0.30;99.90
19389;DHT22;9830;41.876;23.474;2023-12-20T07:54:45;1.20;99.90
19389;DHT22;9830;41.876;23.474;2023-12-20T07:57:12;1.30;99.90
19389;DHT22;9830;41.876;23.474;2023-12-20T07:59:37;2.00;99.90
19389;DHT22;9830;41.876;23.474;2023-12-20T08:02:03;2.70;99.90
19389;DHT22;9830;41.876;23.474;2023-12-20T08:04:29;2.90;99.90
19389;DHT22;9830;41.876;23.474;2023-12-20T08:06:54;3.50;99.90
19389;DHT22;9830;41.876;23.474;2023-12-20T08:09:20;3.70;99.90
19389;DHT22;9830;41.876;23.474;2023-12-20T08:11:49;4.40;99.90
19389;DHT22;9830;41.876;23.474;2023-12-20T08:14:15;5.40;99.90
19389;DHT22;9830;41.876;23.474;2023-12-20T08:16:41;6.80;99.90
19389;DHT22;9830;41.876;23.474;2023-12-20T08:19:07;6.90;97.60
19389;DHT22;9830;41.876;23.474;2023-12-20T08:21:33;8.20;95.60
19389;DHT22;9830;41.876;23.474;2023-12-20T08:23:59;8.60;84.30
19389;DHT22;9830;41.876;23.474;2023-12-20T08:26:26;7.80;94.40
19389;DHT22;9830;41.876;23.474;2023-12-20T08:28:52;7.10;95.20
19389;DHT22;9830;41.876;23.474;2023-12-20T08:31:18;7.10;99.90
19389;DHT22;9830;41.876;23.474;2023-12-20T08:33:44;7.60;95.50
19389;DHT22;9830;41.876;23.474;2023-12-20T08:36:11;7.30;97.20
19389;DHT22;9830;41.876;23.474;2023-12-20T08:38:36;8.60;92.80
19389;DHT22;9830;41.876;23.474;2023-12-20T08:41:02;10.20;77.70
19389;DHT22;9830;41.876;23.474;2023-12-20T08:43:31;10.80;69.00
19389;DHT22;9830;41.876;23.474;2023-12-20T08:45:56;10.10;74.20
19389;DHT22;9830;41.876;23.474;2023-12-20T08:48:22;11.40;63.90
19389;DHT22;9830;41.876;23.474;2023-12-20T08:50:48;10.30;67.50
19389;DHT22;9830;41.876;23.474;2023-12-20T08:53:15;10.20;72.30
19389;DHT22;9830;41.876;23.474;2023-12-20T08:55:42;7.80;94.90
19389;DHT22;9830;41.876;23.474;2023-12-20T08:58:08;6.70;99.90
19389;DHT22;9830;41.876;23.474;2023-12-20T09:00:36;6.40;99.90
19389;DHT22;9830;41.876;23.474;2023-12-20T09:03:02;8.90;94.60
19389;DHT22;9830;41.876;23.474;2023-12-20T09:05:28;10.00;84.20
19389;DHT22;9830;41.876;23.474;2023-12-20T09:07:54;10.40;75.80
19389;DHT22;9830;41.876;23.474;2023-12-20T09:10:20;11.00;70.20
19389;DHT22;9830;41.876;23.474;2023-12-20T09:12:53;11.10;67.00
19389;DHT22;9830;41.876;23.474;2023-12-20T09:15:26;11.40;66.40
19389;DHT22;9830;41.876;23.474;2023-12-20T09:17:53;11.80;62.40
19389;DHT22;9830;41.876;23.474;2023-12-20T09:20:19;11.70;63.30
19389;DHT22;9830;41.876;23.474;2023-12-20T09:22:50;10.50;69.60
19389;DHT22;9830;41.876;23.474;2023-12-20T09:25:18;9.30;82.30
19389;DHT22;9830;41.876;23.474;2023-12-20T09:27:44;8.00;92.90
19389;DHT22;9830;41.876;23.474;2023-12-20T09:30:10;7.30;99.10
19389;DHT22;9830;41.876;23.474;2023-12-20T09:32:35;6.70;99.90
19389;DHT22;9830;41.876;23.474;2023-12-20T09:35:02;6.10;99.90
19389;DHT22;9830;41.876;23.474;2023-12-20T09:37:28;6.70;99.90
19389;DHT22;9830;41.876;23.474;2023-12-20T09:39:54;9.00;95.70
19389;DHT22;9830;41.876;23.474;2023-12-20T09:42:39;9.90;85.20
19389;DHT22;9830;41.876;23.474;2023-12-20T09:45:08;8.20;96.20
19389;DHT22;9830;41.876;23.474;2023-12-20T09:47:35;7.20;99.90
19389;DHT22;9830;41.876;23.474;2023-12-20T09:50:02;8.30;96.40
19389;DHT22;9830;41.876;23.474;2023-12-20T09:52:28;10.10;91.20
19389;DHT22;9830;41.876;23.474;2023-12-20T09:54:55;11.70;69.50
19389;DHT22;9830;41.876;23.474;2023-12-20T09:57:22;11.90;64.80
19389;DHT22;9830;41.876;23.474;2023-12-20T09:59:48;10.80;73.30
19389;DHT22;9830;41.876;23.474;2023-12-20T10:02:14;11.00;73.10
19389;DHT22;9830;41.876;23.474;2023-12-20T10:04:46;11.90;65.30
19389;DHT22;9830;41.876;23.474;2023-12-20T10:07:12;11.20;72.80
19389;DHT22;9830;41.876;23.474;2023-12-20T10:09:38;11.10;70.70
19389;DHT22;9830;41.876;23.474;2023-12-20T10:12:05;11.00;75.80
19389;DHT22;9830;41.876;23.474;2023-12-20T10:14:32;11.30;82.50
19389;DHT22;9830;41.876;23.474;2023-12-20T10:17:03;10.30;78.70
19389;DHT22;9830;41.876;23.474;2023-12-20T10:19:29;9.30;96.30
19389;DHT22;9830;41.876;23.474;2023-12-20T10:21:54;11.70;75.00
19389;DHT22;9830;41.876;23.474;2023-12-20T10:24:20;13.00;66.30
19389;DHT22;9830;41.876;23.474;2023-12-20T10:26:46;13.20;59.90
19389;DHT22;9830;41.876;23.474;2023-12-20T10:29:12;13.50;61.20
19389;DHT22;9830;41.876;23.474;2023-12-20T10:31:37;13.40;61.10
19389;DHT22;9830;41.876;23.474;2023-12-20T10:34:07;13.50;59.20
19389;DHT22;9830;41.876;23.474;2023-12-20T10:36:33;13.10;63.00
19389;DHT22;9830;41.876;23.474;2023-12-20T10:39:00;12.50;67.10
19389;DHT22;9830;41.876;23.474;2023-12-20T10:41:31;12.60;68.00
19389;DHT22;9830;41.876;23.474;2023-12-20T10:44:04;12.80;65.20
19389;DHT22;9830;41.876;23.474;2023-12-20T10:46:34;11.50;73.50
19389;DHT22;9830;41.876;23.474;2023-12-20T10:49:02;11.40;81.60
19389;DHT22;9830;41.876;23.474;2023-12-20T10:51:28;11.70;81.00
19389;DHT22;9830;41.876;23.474;2023-12-20T10:53:56;10.80;89.60
19389;DHT22;9830;41.876;23.474;2023-12-20T10:56:22;10.00;97.30
19389;DHT22;9830;41.876;23.474;2023-12-20T10:58:49;9.60;97.40
19389;DHT22;9830;41.876;23.474;2023-12-20T11:01:17;8.80;99.90
19389;DHT22;9830;41.876;23.474;2023-12-20T11:03:51;7.80;99.90
19389;DHT22;9830;41.876;23.474;2023-12-20T11:06:40;6.90;99.90
19389;DHT22;9830;41.876;23.474;2023-12-20T11:12:13;7.10;99.90
19389;DHT22;9830;41.876;23.474;2023-12-20T11:14:51;6.80;99.90
19389;DHT22;9830;41.876;23.474;2023-12-20T11:17:17;6.50;99.90
19389;DHT22;9830;41.876;23.474;2023-12-20T11:20:04;7.00;99.90
19389;DHT22;9830;41.876;23.474;2023-12-20T11:22:31;6.70;99.90
19389;DHT22;9830;41.876;23.474;2023-12-20T11:25:05;6.90;99.90
19389;DHT22;9830;41.876;23.474;2023-12-20T11:27:34;7.10;99.90
19389;DHT22;9830;41.876;23.474;2023-12-20T11:30:03;7.00;99.90
19389;DHT22;9830;41.876;23.474;2023-12-20T11:32:33;6.70;99.90
19389;DHT22;9830;41.876;23.474;2023-12-20T11:35:01;6.60;99.90
19389;DHT22;9830;41.876;23.474;2023-12-20T11:37:45;7.10;99.90
19389;DHT22;9830;41.876;23.474;2023-12-20T11:40:18;7.30;99.90
19389;DHT22;9830;41.876;23.474;2023-12-20T11:42:45;7.00;99.90
19389;DHT22;9830;41.876;23.474;2023-12-20T11:45:13;6.90;99.90
19389;DHT22;9830;41.876;23.474;2023-12-20T11:47:46;6.90;99.90
19389;DHT22;9830;41.876;23.474;2023-12-20T11:50:13;6.90;99.90
19389;DHT22;9830;41.876;23.474;2023-12-20T11:52:38;6.80;99.90
19389;DHT22;9830;41.876;23.474;2023-12-20T11:55:04;6.70;99.90
19389;DHT22;9830;41.876;23.474;2023-12-20T11:57:31;6.40;99.90
19389;DHT22;9830;41.876;23.474;2023-12-20T11:59:57;6.40;99.90
19389;DHT22;9830;41.876;23.474;2023-12-20T12:02:22;6.50;99.90
19389;DHT22;9830;41.876;23.474;2023-12-20T12:04:49;6.50;99.90
19389;DHT22;9830;41.876;23.474;2023-12-20T12:07:18;6.50;99.90
19389;DHT22;9830;41.876;23.474;2023-12-20T12:09:45;6.30;99.90
19389;DHT22;9830;41.876;23.474;2023-12-20T12:12:12;6.70;99.90
19389;DHT22;9830;41.876;23.474;2023-12-20T12:14:38;6.60;99.90
19389;DHT22;9830;41.876;23.474;2023-12-20T12:17:12;6.40;99.90
19389;DHT22;9830;41.876;23.474;2023-12-20T12:19:39;6.60;99.90
19389;DHT22;9830;41.876;23.474;2023-12-20T12:24:46;6.70;99.90
19389;DHT22;9830;41.876;23.474;2023-12-20T12:27:15;6.80;99.90
19389;DHT22;9830;41.876;23.474;2023-12-20T12:30:01;6.80;99.90
19389;DHT22;9830;41.876;23.474;2023-12-20T12:32:28;6.80;99.90
19389;DHT22;9830;41.876;23.474;2023-12-20T12:34:53;6.60;99.90
19389;DHT22;9830;41.876;23.474;2023-12-20T12:37:19;6.60;99.90
19389;DHT22;9830;41.876;23.474;2023-12-20T12:39:46;6.60;99.90
19389;DHT22;9830;41.876;23.474;2023-12-20T12:42:12;6.20;99.90
19389;DHT22;9830;41.876;23.474;2023-12-20T12:44:38;6.00;99.90
19389;DHT22;9830;41.876;23.474;2023-12-20T12:47:03;6.00;99.90
19389;DHT22;9830;41.876;23.474;2023-12-20T12:49:29;5.80;99.90
19389;DHT22;9830;41.876;23.474;2023-12-20T12:51:55;5.80;99.90
19389;DHT22;9830;41.876;23.474;2023-12-20T12:54:23;5.80;99.90
19389;DHT22;9830;41.876;23.474;2023-12-20T12:56:49;5.90;99.90
19389;DHT22;9830;41.876;23.474;2023-12-20T12:59:16;5.60;99.90
19389;DHT22;9830;41.876;23.474;2023-12-20T13:01:42;5.70;99.90
19389;DHT22;9830;41.876;23.474;2023-12-20T13:04:08;5.80;99.90
19389;DHT22;9830;41.876;23.474;2023-12-20T13:06:37;5.60;99.90
19389;DHT22;9830;41.876;23.474;2023-12-20T13:09:03;5.80;99.90
19389;DHT22;9830;41.876;23.474;2023-12-20T13:11:32;5.70;99.90
19389;DHT22;9830;41.876;23.474;2023-12-20T13:13:58;5.80;99.90
19389;DHT22;9830;41.876;23.474;2023-12-20T13:16:24;5.50;99.90
19389;DHT22;9830;41.876;23.474;2023-12-20T13:18:50;5.50;99.90
19389;DHT22;9830;41.876;23.474;2023-12-20T13:21:16;5.40;99.90
19389;DHT22;9830;41.876;23.474;2023-12-20T13:23:42;5.20;99.90
19389;DHT22;9830;41.876;23.474;2023-12-20T13:26:08;5.20;99.90
19389;DHT22;9830;41.876;23.474;2023-12-20T13:28:34;5.00;99.90
19389;DHT22;9830;41.876;23.474;2023-12-20T13:30:59;5.00;99.90
19389;DHT22;9830;41.876;23.474;2023-12-20T13:33:25;5.00;99.90
19389;DHT22;9830;41.876;23.474;2023-12-20T13:36:09;4.80;99.90
19389;DHT22;9830;41.876;23.474;2023-12-20T13:38:34;4.70;99.90
19389;DHT22;9830;41.876;23.474;2023-12-20T13:41:00;4.70;99.90
19389;DHT22;9830;41.876;23.474;2023-12-20T13:43:26;4.80;99.90
19389;DHT22;9830;41.876;23.474;2023-12-20T13:45:51;4.60;99.90
19389;DHT22;9830;41.876;23.474;2023-12-20T13:48:18;4.60;99.90
19389;DHT22;9830;41.876;23.474;2023-12-20T13:50:44;4.50;99.90
19389;DHT22;9830;41.876;23.474;2023-12-20T13:53:09;4.40;99.90
19389;DHT22;9830;41.876;23.474;2023-12-20T13:55:35;4.70;99.90
19389;DHT22;9830;41.876;23.474;2023-12-20T13:58:01;4.70;99.90
19389;DHT22;9830;41.876;23.474;2023-12-20T14:00:26;4.70;99.90
19389;DHT22;9830;41.876;23.474;2023-12-20T14:02:52;4.60;99.90
19389;DHT22;9830;41.876;23.474;2023-12-20T14:05:17;4.50;99.90
19389;DHT22;9830;41.876;23.474;2023-12-20T14:07:44;4.50;99.90
19389;DHT22;9830;41.876;23.474;2023-12-20T14:10:11;4.50;99.90
19389;DHT22;9830;41.876;23.474;2023-12-20T14:12:38;4.40;99.90
19389;DHT22;9830;41.876;23.474;2023-12-20T14:15:04;4.20;99.90
19389;DHT22;9830;41.876;23.474;2023-12-20T14:17:34;4.10;99.90
19389;DHT22;9830;41.876;23.474;2023-12-20T14:20:00;3.90;99.90
19389;DHT22;9830;41.876;23.474;2023-12-20T14:22:26;3.90;99.90
19389;DHT22;9830;41.876;23.474;2023-12-20T14:24:54;3.80;99.90
19389;DHT22;9830;41.876;23.474;2023-12-20T14:27:20;3.60;99.90
19389;DHT22;9830;41.876;23.474;2023-12-20T14:29:48;3.50;99.90
19389;DHT22;9830;41.876;23.474;2023-12-20T14:32:14;3.40;99.90
19389;DHT22;9830;41.876;23.474;2023-12-20T14:34:41;3.30;99.90
19389;DHT22;9830;41.876;23.474;2023-12-20T14:37:07;3.20;99.90
19389;DHT22;9830;41.876;23.474;2023-12-20T14:39:33;3.10;99.90
19389;DHT22;9830;41.876;23.474;2023-12-20T14:41:58;3.00;99.90
19389;DHT22;9830;41.876;23.474;2023-12-20T14:44:24;2.90;99.90
19389;DHT22;9830;41.876;23.474;2023-12-20T14:46:50;2.80;99.90
19389;DHT22;9830;41.876;23.474;2023-12-20T14:49:16;2.80;99.90
19389;DHT22;9830;41.876;23.474;2023-12-20T14:51:45;2.80;99.90
19389;DHT22;9830;41.876;23.474;2023-12-20T14:54:13;2.70;99.90
19389;DHT22;9830;41.876;23.474;2023-12-20T14:56:39;2.60;99.90
19389;DHT22;9830;41.876;23.474;2023-12-20T14:59:05;2.50;99.90
19389;DHT22;9830;41.876;23.474;2023-12-20T15:01:31;2.50;99.90
19389;DHT22;9830;41.876;23.474;2023-12-20T15:03:56;2.40;99.90
19389;DHT22;9830;41.876;23.474;2023-12-20T15:06:22;2.30;99.90
19389;DHT22;9830;41.876;23.474;2023-12-20T15:08:48;2.10;99.90
19389;DHT22;9830;41.876;23.474;2023-12-20T15:11:13;2.00;99.90
19389;DHT22;9830;41.876;23.474;2023-12-20T15:13:39;1.90;99.90
19389;DHT22;9830;41.876;23.474;2023-12-20T15:16:05;1.70;99.90
19389;DHT22;9830;41.876;23.474;2023-12-20T15:18:31;1.60;99.90
19389;DHT22;9830;41.876;23.474;2023-12-20T15:20:57;1.50;99.90
19389;DHT22;9830;41.876;23.474;2023-12-20T15:23:23;1.40;99.90
19389;DHT22;9830;41.876;23.474;2023-12-20T15:25:52;1.30;99.90
19389;DHT22;9830;41.876;23.474;2023-12-20T15:28:17;1.20;99.90
19389;DHT22;9830;41.876;23.474;2023-12-20T15:30:43;1.10;99.90
19389;DHT22;9830;41.876;23.474;2023-12-20T15:33:09;1.00;99.90
19389;DHT22;9830;41.876;23.474;2023-12-20T15:35:34;0.90;99.90
19389;DHT22;9830;41.876;23.474;2023-12-20T15:38:00;0.80;99.90